sensor_id;sensor_type;location;lat;lon;timestamp;temperature;humidity
20833;DHT22;56075;51.264;7.150;2023-05-03T00:01:08;7.10;99.90
20833;DHT22;56075;51.264;7.150;2023-05-03T00:06:12;6.50;99.90
20833;DHT22;56075;51.264;7.150;2023-05-03T00:13:46;6.30;99.90
20833;DHT22;56075;51.264;7.150;2023-05-03T00:23:53;6.10;99.90
20833;DHT22;56075;51.264;7.150;2023-05-03T00:28:56;6.30;99.90
20833;DHT22;56075;51.264;7.150;2023-05-03T00:44:04;6.10;99.90
20833;DHT22;56075;51.264;7.150;2023-05-03T00:46:36;6.00;99.90
20833;DHT22;56075;51.264;7.150;2023-05-03T00:49:07;6.00;99.90
20833;DHT22;56075;51.264;7.150;2023-05-03T00:51:39;6.00;99.90
20833;DHT22;56075;51.264;7.150;2023-05-03T00:54:11;6.00;99.90
20833;DHT22;56075;51.264;7.150;2023-05-03T00:56:43;5.60;99.90
20833;DHT22;56075;51.264;7.150;2023-05-03T01:01:48;5.90;99.90
20833;DHT22;56075;51.264;7.150;2023-05-03T01:20:29;5.60;99.90
20833;DHT22;56075;51.264;7.150;2023-05-03T01:28:07;5.80;99.90
20833;DHT22;56075;51.264;7.150;2023-05-03T01:33:32;5.50;99.90
20833;DHT22;56075;51.264;7.150;2023-05-03T01:39:06;5.60;99.90
20833;DHT22;56075;51.264;7.150;2023-05-03T01:41:40;5.50;99.90
20833;DHT22;56075;51.264;7.150;2023-05-03T01:44:12;5.10;99.90
20833;DHT22;56075;51.264;7.150;2023-05-03T01:46:45;5.50;99.90
20833;DHT22;56075;51.264;7.150;2023-05-03T01:59:24;5.20;99.90
20833;DHT22;56075;51.264;7.150;2023-05-03T02:01:55;5.50;99.90
20833;DHT22;56075;51.264;7.150;2023-05-03T02:12:04;5.40;99.90
20833;DHT22;56075;51.264;7.150;2023-05-03T02:17:07;5.30;99.90
20833;DHT22;56075;51.264;7.150;2023-05-03T02:27:14;5.30;99.90
20833;DHT22;56075;51.264;7.150;2023-05-03T02:39:58;5.10;99.90
20833;DHT22;56075;51.264;7.150;2023-05-03T02:50:06;5.00;99.90
20833;DHT22;56075;51.264;7.150;2023-05-03T02:57:45;5.20;99.90
20833;DHT22;56075;51.264;7.150;2023-05-03T03:12:59;4.60;99.90
20833;DHT22;56075;51.264;7.150;2023-05-03T03:23:12;4.60;99.90
20833;DHT22;56075;51.264;7.150;2023-05-03T03:28:14;4.60;99.90
20833;DHT22;56075;51.264;7.150;2023-05-03T03:30:46;4.60;99.90
20833;DHT22;56075;51.264;7.150;2023-05-03T03:54:04;4.60;99.90
20833;DHT22;56075;51.264;7.150;2023-05-03T03:59:10;4.50;99.90
20833;DHT22;56075;51.264;7.150;2023-05-03T04:11:51;4.30;99.90
20833;DHT22;56075;51.264;7.150;2023-05-03T04:14:23;4.10;99.90
20833;DHT22;56075;51.264;7.150;2023-05-03T04:19:27;4.40;99.90
20833;DHT22;56075;51.264;7.150;2023-05-03T04:34:45;4.40;99.90
20833;DHT22;56075;51.264;7.150;2023-05-03T04:42:25;4.40;99.90
20833;DHT22;56075;51.264;7.150;2023-05-03T05:07:55;4.60;99.90
20833;DHT22;56075;51.264;7.150;2023-05-03T05:25:41;4.70;99.90
20833;DHT22;56075;51.264;7.150;2023-05-03T05:28:13;5.20;99.90
20833;DHT22;56075;51.264;7.150;2023-05-03T05:38:21;5.10;99.90
20833;DHT22;56075;51.264;7.150;2023-05-03T05:51:04;5.40;99.90
20833;DHT22;56075;51.264;7.150;2023-05-03T05:53:36;5.50;99.90
20833;DHT22;56075;51.264;7.150;2023-05-03T06:01:10;5.80;99.90
20833;DHT22;56075;51.264;7.150;2023-05-03T06:11:19;6.20;99.90
20833;DHT22;56075;51.264;7.150;2023-05-03T06:18:56;6.10;99.90
20833;DHT22;56075;51.264;7.150;2023-05-03T06:24:00;6.50;99.90
20833;DHT22;56075;51.264;7.150;2023-05-03T06:29:04;6.60;99.90
20833;DHT22;56075;51.264;7.150;2023-05-03T06:31:35;6.90;99.90
20833;DHT22;56075;51.264;7.150;2023-05-03T06:36:41;6.90;99.90
20833;DHT22;56075;51.264;7.150;2023-05-03T06:46:51;7.10;99.90
20833;DHT22;56075;51.264;7.150;2023-05-03T06:51:54;7.60;99.90
20833;DHT22;56075;51.264;7.150;2023-05-03T06:59:28;7.50;99.90
20833;DHT22;56075;51.264;7.150;2023-05-03T07:07:03;8.00;99.90
20833;DHT22;56075;51.264;7.150;2023-05-03T07:09:36;8.20;99.90
20833;DHT22;56075;51.264;7.150;2023-05-03T07:12:07;8.20;99.90
20833;DHT22;56075;51.264;7.150;2023-05-03T07:14:38;8.30;99.90
20833;DHT22;56075;51.264;7.150;2023-05-03T07:17:10;8.20;99.90
20833;DHT22;56075;51.264;7.150;2023-05-03T07:22:13;8.60;99.90
20833;DHT22;56075;51.264;7.150;2023-05-03T07:24:44;8.50;99.90
20833;DHT22;56075;51.264;7.150;2023-05-03T07:29:47;8.80;99.90
20833;DHT22;56075;51.264;7.150;2023-05-03T07:34:51;8.90;99.90
20833;DHT22;56075;51.264;7.150;2023-05-03T07:42:26;9.20;99.90
20833;DHT22;56075;51.264;7.150;2023-05-03T07:50:01;9.40;99.90
20833;DHT22;56075;51.264;7.150;2023-05-03T07:52:38;9.50;99.90
20833;DHT22;56075;51.264;7.150;2023-05-03T07:55:09;9.50;99.90
20833;DHT22;56075;51.264;7.150;2023-05-03T07:57:40;9.80;99.90
20833;DHT22;56075;51.264;7.150;2023-05-03T08:00:13;9.60;99.90
20833;DHT22;56075;51.264;7.150;2023-05-03T08:02:45;9.50;99.90
20833;DHT22;56075;51.264;7.150;2023-05-03T08:05:16;9.70;99.90
20833;DHT22;56075;51.264;7.150;2023-05-03T08:07:48;9.60;99.90
20833;DHT22;56075;51.264;7.150;2023-05-03T08:10:19;9.80;99.90
20833;DHT22;56075;51.264;7.150;2023-05-03T08:12:51;10.00;99.90
20833;DHT22;56075;51.264;7.150;2023-05-03T08:15:22;10.10;99.90
20833;DHT22;56075;51.264;7.150;2023-05-03T08:20:25;9.90;99.90
20833;DHT22;56075;51.264;7.150;2023-05-03T08:22:57;9.90;99.90
20833;DHT22;56075;51.264;7.150;2023-05-03T08:25:29;10.10;99.90
20833;DHT22;56075;51.264;7.150;2023-05-03T08:28:00;10.10;99.90
20833;DHT22;56075;51.264;7.150;2023-05-03T08:30:31;10.20;99.90
20833;DHT22;56075;51.264;7.150;2023-05-03T08:33:02;10.20;99.90
20833;DHT22;56075;51.264;7.150;2023-05-03T08:35:35;10.30;99.90
20833;DHT22;56075;51.264;7.150;2023-05-03T08:38:06;10.30;99.90
20833;DHT22;56075;51.264;7.150;2023-05-03T08:40:37;10.60;99.90
20833;DHT22;56075;51.264;7.150;2023-05-03T08:45:42;10.70;99.90
20833;DHT22;56075;51.264;7.150;2023-05-03T08:48:14;10.70;99.90
20833;DHT22;56075;51.264;7.150;2023-05-03T08:50:45;10.80;99.90
20833;DHT22;56075;51.264;7.150;2023-05-03T08:53:17;10.70;99.90
20833;DHT22;56075;51.264;7.150;2023-05-03T08:55:48;10.70;99.90
20833;DHT22;56075;51.264;7.150;2023-05-03T08:58:19;10.90;99.90
20833;DHT22;56075;51.264;7.150;2023-05-03T09:00:50;11.00;99.90
20833;DHT22;56075;51.264;7.150;2023-05-03T09:03:21;11.10;99.90
20833;DHT22;56075;51.264;7.150;2023-05-03T09:05:53;11.10;99.90
20833;DHT22;56075;51.264;7.150;2023-05-03T09:08:24;11.10;99.90
20833;DHT22;56075;51.264;7.150;2023-05-03T09:10:56;11.20;99.90
20833;DHT22;56075;51.264;7.150;2023-05-03T09:13:30;11.10;99.90
20833;DHT22;56075;51.264;7.150;2023-05-03T09:16:01;10.90;99.90
20833;DHT22;56075;51.264;7.150;2023-05-03T09:18:33;11.30;99.90
20833;DHT22;56075;51.264;7.150;2023-05-03T09:21:04;11.40;99.90
20833;DHT22;56075;51.264;7.150;2023-05-03T09:23:35;13.10;99.90
20833;DHT22;56075;51.264;7.150;2023-05-03T09:26:06;11.70;99.90
20833;DHT22;56075;51.264;7.150;2023-05-03T09:28:40;12.30;99.90
20833;DHT22;56075;51.264;7.150;2023-05-03T09:31:13;11.80;99.90
20833;DHT22;56075;51.264;7.150;2023-05-03T09:33:44;11.90;99.90
20833;DHT22;56075;51.264;7.150;2023-05-03T09:36:15;11.80;99.90
20833;DHT22;56075;51.264;7.150;2023-05-03T09:38:48;11.90;99.90
20833;DHT22;56075;51.264;7.150;2023-05-03T09:41:30;11.80;99.90
20833;DHT22;56075;51.264;7.150;2023-05-03T09:44:01;12.30;99.90
20833;DHT22;56075;51.264;7.150;2023-05-03T09:46:32;12.10;99.90
20833;DHT22;56075;51.264;7.150;2023-05-03T09:49:04;11.90;99.90
20833;DHT22;56075;51.264;7.150;2023-05-03T09:51:35;12.60;99.90
20833;DHT22;56075;51.264;7.150;2023-05-03T09:54:08;12.10;99.90
20833;DHT22;56075;51.264;7.150;2023-05-03T09:56:41;11.50;99.90
20833;DHT22;56075;51.264;7.150;2023-05-03T09:59:14;13.70;99.90
20833;DHT22;56075;51.264;7.150;2023-05-03T10:01:46;13.70;99.90
20833;DHT22;56075;51.264;7.150;2023-05-03T10:04:19;12.30;99.90
20833;DHT22;56075;51.264;7.150;2023-05-03T10:06:56;12.40;99.90
20833;DHT22;56075;51.264;7.150;2023-05-03T10:09:35;13.20;99.90
20833;DHT22;56075;51.264;7.150;2023-05-03T10:12:11;12.90;99.90
20833;DHT22;56075;51.264;7.150;2023-05-03T10:14:45;12.70;99.90
20833;DHT22;56075;51.264;7.150;2023-05-03T10:17:26;12.80;99.90
20833;DHT22;56075;51.264;7.150;2023-05-03T10:20:25;12.70;99.90
20833;DHT22;56075;51.264;7.150;2023-05-03T10:25:37;13.10;99.90
20833;DHT22;56075;51.264;7.150;2023-05-03T10:28:09;12.90;99.90
20833;DHT22;56075;51.264;7.150;2023-05-03T10:30:40;13.00;99.90
20833;DHT22;56075;51.264;7.150;2023-05-03T10:35:50;13.60;99.90
20833;DHT22;56075;51.264;7.150;2023-05-03T10:38:26;13.20;99.90
20833;DHT22;56075;51.264;7.150;2023-05-03T10:40:58;13.40;99.90
20833;DHT22;56075;51.264;7.150;2023-05-03T10:46:05;13.30;99.90
20833;DHT22;56075;51.264;7.150;2023-05-03T10:48:36;13.50;99.90
20833;DHT22;56075;51.264;7.150;2023-05-03T10:53:58;14.30;99.90
20833;DHT22;56075;51.264;7.150;2023-05-03T10:56:30;15.20;99.90
20833;DHT22;56075;51.264;7.150;2023-05-03T10:59:01;14.10;99.70
20833;DHT22;56075;51.264;7.150;2023-05-03T11:01:32;15.30;99.90
20833;DHT22;56075;51.264;7.150;2023-05-03T11:04:06;14.10;99.50
20833;DHT22;56075;51.264;7.150;2023-05-03T11:06:40;14.00;99.10
20833;DHT22;56075;51.264;7.150;2023-05-03T11:09:11;14.80;99.00
20833;DHT22;56075;51.264;7.150;2023-05-03T11:11:44;14.40;98.80
20833;DHT22;56075;51.264;7.150;2023-05-03T11:14:15;15.40;99.00
20833;DHT22;56075;51.264;7.150;2023-05-03T11:16:47;14.40;98.30
20833;DHT22;56075;51.264;7.150;2023-05-03T11:19:20;15.50;98.60
20833;DHT22;56075;51.264;7.150;2023-05-03T11:21:51;14.70;98.10
20833;DHT22;56075;51.264;7.150;2023-05-03T11:24:23;16.10;98.40
20833;DHT22;56075;51.264;7.150;2023-05-03T11:26:54;15.10;98.00
20833;DHT22;56075;51.264;7.150;2023-05-03T11:29:25;15.30;98.00
20833;DHT22;56075;51.264;7.150;2023-05-03T11:31:57;14.90;97.60
20833;DHT22;56075;51.264;7.150;2023-05-03T11:34:28;15.20;97.30
20833;DHT22;56075;51.264;7.150;2023-05-03T11:37:01;15.20;97.30
20833;DHT22;56075;51.264;7.150;2023-05-03T11:39:32;15.30;97.00
20833;DHT22;56075;51.264;7.150;2023-05-03T11:42:04;15.40;96.70
20833;DHT22;56075;51.264;7.150;2023-05-03T11:44:35;15.80;96.60
20833;DHT22;56075;51.264;7.150;2023-05-03T11:47:07;16.70;96.20
20833;DHT22;56075;51.264;7.150;2023-05-03T11:49:39;17.30;95.40
20833;DHT22;56075;51.264;7.150;2023-05-03T11:52:10;17.80;94.30
20833;DHT22;56075;51.264;7.150;2023-05-03T11:54:41;18.00;94.00
20833;DHT22;56075;51.264;7.150;2023-05-03T11:57:13;18.20;93.40
20833;DHT22;56075;51.264;7.150;2023-05-03T11:59:44;19.00;93.30
20833;DHT22;56075;51.264;7.150;2023-05-03T12:02:16;19.10;92.60
20833;DHT22;56075;51.264;7.150;2023-05-03T12:04:47;19.00;92.20
20833;DHT22;56075;51.264;7.150;2023-05-03T12:07:18;19.20;91.30
20833;DHT22;56075;51.264;7.150;2023-05-03T12:09:50;19.40;91.30
20833;DHT22;56075;51.264;7.150;2023-05-03T12:12:21;19.90;90.90
20833;DHT22;56075;51.264;7.150;2023-05-03T12:17:38;20.20;90.10
20833;DHT22;56075;51.264;7.150;2023-05-03T12:20:28;20.40;89.40
20833;DHT22;56075;51.264;7.150;2023-05-03T12:23:05;20.80;87.80
20833;DHT22;56075;51.264;7.150;2023-05-03T12:25:40;21.50;87.90
20833;DHT22;56075;51.264;7.150;2023-05-03T12:28:12;21.30;86.60
20833;DHT22;56075;51.264;7.150;2023-05-03T12:30:43;21.80;85.50
20833;DHT22;56075;51.264;7.150;2023-05-03T12:33:15;22.00;84.10
20833;DHT22;56075;51.264;7.150;2023-05-03T12:35:46;22.10;83.60
20833;DHT22;56075;51.264;7.150;2023-05-03T12:38:17;22.30;82.30
20833;DHT22;56075;51.264;7.150;2023-05-03T12:40:48;22.50;82.00
20833;DHT22;56075;51.264;7.150;2023-05-03T12:43:19;22.60;81.30
20833;DHT22;56075;51.264;7.150;2023-05-03T12:45:51;22.80;80.60
20833;DHT22;56075;51.264;7.150;2023-05-03T12:48:22;23.10;79.90
20833;DHT22;56075;51.264;7.150;2023-05-03T12:50:54;23.10;78.60
20833;DHT22;56075;51.264;7.150;2023-05-03T12:53:26;23.10;78.70
20833;DHT22;56075;51.264;7.150;2023-05-03T12:55:57;23.90;78.40
20833;DHT22;56075;51.264;7.150;2023-05-03T12:58:28;23.60;77.10
20833;DHT22;56075;51.264;7.150;2023-05-03T13:00:59;23.80;76.70
20833;DHT22;56075;51.264;7.150;2023-05-03T13:03:30;23.90;76.00
20833;DHT22;56075;51.264;7.150;2023-05-03T13:06:01;24.20;75.50
20833;DHT22;56075;51.264;7.150;2023-05-03T13:08:36;24.10;73.90
20833;DHT22;56075;51.264;7.150;2023-05-03T13:11:08;24.00;74.50
20833;DHT22;56075;51.264;7.150;2023-05-03T13:13:39;24.30;73.70
20833;DHT22;56075;51.264;7.150;2023-05-03T13:16:10;25.10;73.70
20833;DHT22;56075;51.264;7.150;2023-05-03T13:18:42;25.40;73.50
20833;DHT22;56075;51.264;7.150;2023-05-03T13:21:14;24.40;73.00
20833;DHT22;56075;51.264;7.150;2023-05-03T13:23:45;24.60;72.20
20833;DHT22;56075;51.264;7.150;2023-05-03T13:26:17;24.60;71.40
20833;DHT22;56075;51.264;7.150;2023-05-03T13:28:48;24.60;72.10
20833;DHT22;56075;51.264;7.150;2023-05-03T13:31:20;24.50;71.20
20833;DHT22;56075;51.264;7.150;2023-05-03T13:33:53;24.60;70.90
20833;DHT22;56075;51.264;7.150;2023-05-03T13:36:25;24.80;70.20
20833;DHT22;56075;51.264;7.150;2023-05-03T13:38:56;24.80;69.80
20833;DHT22;56075;51.264;7.150;2023-05-03T13:41:28;25.00;69.50
20833;DHT22;56075;51.264;7.150;2023-05-03T13:43:59;25.00;68.30
20833;DHT22;56075;51.264;7.150;2023-05-03T13:46:31;24.90;68.40
20833;DHT22;56075;51.264;7.150;2023-05-03T13:49:05;25.20;68.40
20833;DHT22;56075;51.264;7.150;2023-05-03T13:51:37;25.60;68.00
20833;DHT22;56075;51.264;7.150;2023-05-03T13:54:08;25.60;66.80
20833;DHT22;56075;51.264;7.150;2023-05-03T13:56:39;25.80;66.80
20833;DHT22;56075;51.264;7.150;2023-05-03T13:59:12;25.90;66.50
20833;DHT22;56075;51.264;7.150;2023-05-03T14:01:43;26.00;65.90
20833;DHT22;56075;51.264;7.150;2023-05-03T14:04:15;26.10;65.20
20833;DHT22;56075;51.264;7.150;2023-05-03T14:06:47;26.00;64.60
20833;DHT22;56075;51.264;7.150;2023-05-03T14:09:18;25.90;64.90
20833;DHT22;56075;51.264;7.150;2023-05-03T14:11:50;25.80;65.00
20833;DHT22;56075;51.264;7.150;2023-05-03T14:14:21;26.00;64.50
20833;DHT22;56075;51.264;7.150;2023-05-03T14:16:52;26.20;64.30
20833;DHT22;56075;51.264;7.150;2023-05-03T14:19:23;26.10;64.00
20833;DHT22;56075;51.264;7.150;2023-05-03T14:21:55;26.30;63.20
20833;DHT22;56075;51.264;7.150;2023-05-03T14:24:29;26.30;63.20
20833;DHT22;56075;51.264;7.150;2023-05-03T14:27:00;26.20;63.20
20833;DHT22;56075;51.264;7.150;2023-05-03T14:29:31;26.40;63.10
20833;DHT22;56075;51.264;7.150;2023-05-03T14:32:03;26.30;62.40
20833;DHT22;56075;51.264;7.150;2023-05-03T14:34:34;26.30;62.50
20833;DHT22;56075;51.264;7.150;2023-05-03T14:37:05;26.30;62.40
20833;DHT22;56075;51.264;7.150;2023-05-03T14:39:37;26.40;62.20
20833;DHT22;56075;51.264;7.150;2023-05-03T14:42:09;26.50;62.00
20833;DHT22;56075;51.264;7.150;2023-05-03T14:44:41;26.60;61.70
20833;DHT22;56075;51.264;7.150;2023-05-03T14:47:13;26.80;60.90
20833;DHT22;56075;51.264;7.150;2023-05-03T14:49:44;26.80;60.90
20833;DHT22;56075;51.264;7.150;2023-05-03T14:52:15;26.70;60.60
20833;DHT22;56075;51.264;7.150;2023-05-03T14:54:47;26.90;60.90
20833;DHT22;56075;51.264;7.150;2023-05-03T14:57:18;27.00;59.80
20833;DHT22;56075;51.264;7.150;2023-05-03T14:59:49;27.40;59.70
20833;DHT22;56075;51.264;7.150;2023-05-03T15:02:20;27.50;59.40
20833;DHT22;56075;51.264;7.150;2023-05-03T15:04:52;27.40;59.30
20833;DHT22;56075;51.264;7.150;2023-05-03T15:07:24;27.40;59.10
20833;DHT22;56075;51.264;7.150;2023-05-03T15:09:55;27.40;59.00
20833;DHT22;56075;51.264;7.150;2023-05-03T15:12:26;27.40;58.70
20833;DHT22;56075;51.264;7.150;2023-05-03T15:14:57;27.40;59.00
20833;DHT22;56075;51.264;7.150;2023-05-03T15:17:29;27.20;58.60
20833;DHT22;56075;51.264;7.150;2023-05-03T15:20:00;27.30;58.90
20833;DHT22;56075;51.264;7.150;2023-05-03T15:22:32;27.40;58.60
20833;DHT22;56075;51.264;7.150;2023-05-03T15:25:03;27.30;58.70
20833;DHT22;56075;51.264;7.150;2023-05-03T15:27:34;27.40;58.60
20833;DHT22;56075;51.264;7.150;2023-05-03T15:30:06;27.30;58.50
20833;DHT22;56075;51.264;7.150;2023-05-03T15:32:37;27.20;58.30
20833;DHT22;56075;51.264;7.150;2023-05-03T15:35:08;27.10;58.30
20833;DHT22;56075;51.264;7.150;2023-05-03T15:37:39;27.00;58.40
20833;DHT22;56075;51.264;7.150;2023-05-03T15:40:11;27.10;58.80
20833;DHT22;56075;51.264;7.150;2023-05-03T15:42:43;27.10;58.70
20833;DHT22;56075;51.264;7.150;2023-05-03T15:45:14;26.90;58.60
20833;DHT22;56075;51.264;7.150;2023-05-03T15:47:45;26.90;58.80
20833;DHT22;56075;51.264;7.150;2023-05-03T15:50:17;26.90;58.50
20833;DHT22;56075;51.264;7.150;2023-05-03T15:52:48;26.90;58.40
20833;DHT22;56075;51.264;7.150;2023-05-03T15:55:19;26.80;58.40
20833;DHT22;56075;51.264;7.150;2023-05-03T15:57:51;26.80;58.50
20833;DHT22;56075;51.264;7.150;2023-05-03T16:00:23;26.60;58.80
20833;DHT22;56075;51.264;7.150;2023-05-03T16:02:55;26.70;58.70
20833;DHT22;56075;51.264;7.150;2023-05-03T16:05:29;26.60;58.50
20833;DHT22;56075;51.264;7.150;2023-05-03T16:08:00;26.70;58.70
20833;DHT22;56075;51.264;7.150;2023-05-03T16:10:32;26.60;58.60
20833;DHT22;56075;51.264;7.150;2023-05-03T16:13:04;26.40;58.90
20833;DHT22;56075;51.264;7.150;2023-05-03T16:15:35;26.30;59.00
20833;DHT22;56075;51.264;7.150;2023-05-03T16:18:06;26.30;59.40
20833;DHT22;56075;51.264;7.150;2023-05-03T16:20:37;26.20;59.60
20833;DHT22;56075;51.264;7.150;2023-05-03T16:23:09;26.00;59.70
20833;DHT22;56075;51.264;7.150;2023-05-03T16:25:40;25.90;60.10
20833;DHT22;56075;51.264;7.150;2023-05-03T16:28:11;25.70;60.30
20833;DHT22;56075;51.264;7.150;2023-05-03T16:30:43;25.50;60.80
20833;DHT22;56075;51.264;7.150;2023-05-03T16:33:15;25.30;61.20
20833;DHT22;56075;51.264;7.150;2023-05-03T16:35:47;25.00;61.90
20833;DHT22;56075;51.264;7.150;2023-05-03T16:38:19;24.50;62.80
20833;DHT22;56075;51.264;7.150;2023-05-03T16:40:50;24.10;63.50
20833;DHT22;56075;51.264;7.150;2023-05-03T16:43:22;23.60;64.50
20833;DHT22;56075;51.264;7.150;2023-05-03T16:45:57;23.10;65.30
20833;DHT22;56075;51.264;7.150;2023-05-03T16:48:30;22.60;66.80
20833;DHT22;56075;51.264;7.150;2023-05-03T16:51:02;22.30;67.90
20833;DHT22;56075;51.264;7.150;2023-05-03T16:53:33;21.90;68.70
20833;DHT22;56075;51.264;7.150;2023-05-03T16:56:04;22.20;69.60
20833;DHT22;56075;51.264;7.150;2023-05-03T16:58:36;21.30;70.00
20833;DHT22;56075;51.264;7.150;2023-05-03T17:01:07;21.00;70.80
20833;DHT22;56075;51.264;7.150;2023-05-03T17:03:39;21.40;71.90
20833;DHT22;56075;51.264;7.150;2023-05-03T17:06:10;20.30;72.40
20833;DHT22;56075;51.264;7.150;2023-05-03T17:08:43;20.30;73.00
20833;DHT22;56075;51.264;7.150;2023-05-03T17:11:14;20.00;73.50
20833;DHT22;56075;51.264;7.150;2023-05-03T17:13:46;20.70;74.40
20833;DHT22;56075;51.264;7.150;2023-05-03T17:16:17;20.90;75.10
20833;DHT22;56075;51.264;7.150;2023-05-03T17:18:48;19.60;74.80
20833;DHT22;56075;51.264;7.150;2023-05-03T17:21:20;19.50;75.30
20833;DHT22;56075;51.264;7.150;2023-05-03T17:23:51;19.20;75.90
20833;DHT22;56075;51.264;7.150;2023-05-03T17:26:22;19.80;76.40
20833;DHT22;56075;51.264;7.150;2023-05-03T17:28:53;20.30;77.40
20833;DHT22;56075;51.264;7.150;2023-05-03T17:31:24;19.00;76.90
20833;DHT22;56075;51.264;7.150;2023-05-03T17:33:56;18.70;77.30
20833;DHT22;56075;51.264;7.150;2023-05-03T17:36:27;18.50;77.60
20833;DHT22;56075;51.264;7.150;2023-05-03T17:38:59;18.90;78.70
20833;DHT22;56075;51.264;7.150;2023-05-03T17:41:30;18.30;78.60
20833;DHT22;56075;51.264;7.150;2023-05-03T17:44:01;19.00;79.70
20833;DHT22;56075;51.264;7.150;2023-05-03T17:46:32;18.10;79.20
20833;DHT22;56075;51.264;7.150;2023-05-03T17:49:05;19.00;80.40
20833;DHT22;56075;51.264;7.150;2023-05-03T17:51:36;18.00;80.10
20833;DHT22;56075;51.264;7.150;2023-05-03T17:54:07;17.90;80.00
20833;DHT22;56075;51.264;7.150;2023-05-03T17:56:38;17.80;80.40
20833;DHT22;56075;51.264;7.150;2023-05-03T17:59:09;18.30;80.90
20833;DHT22;56075;51.264;7.150;2023-05-03T18:01:41;17.90;81.20
20833;DHT22;56075;51.264;7.150;2023-05-03T18:04:12;17.60;81.20
20833;DHT22;56075;51.264;7.150;2023-05-03T18:06:43;17.50;81.50
20833;DHT22;56075;51.264;7.150;2023-05-03T18:09:14;17.30;81.80
20833;DHT22;56075;51.264;7.150;2023-05-03T18:11:53;17.30;82.30
20833;DHT22;56075;51.264;7.150;2023-05-03T18:14:26;17.30;82.50
20833;DHT22;56075;51.264;7.150;2023-05-03T18:16:57;17.20;82.50
20833;DHT22;56075;51.264;7.150;2023-05-03T18:19:28;17.10;83.00
20833;DHT22;56075;51.264;7.150;2023-05-03T18:21:59;17.00;83.60
20833;DHT22;56075;51.264;7.150;2023-05-03T18:24:31;17.30;84.00
20833;DHT22;56075;51.264;7.150;2023-05-03T18:27:02;16.70;84.00
20833;DHT22;56075;51.264;7.150;2023-05-03T18:29:33;16.50;84.20
20833;DHT22;56075;51.264;7.150;2023-05-03T18:32:05;17.30;85.20
20833;DHT22;56075;51.264;7.150;2023-05-03T18:34:36;16.10;85.20
20833;DHT22;56075;51.264;7.150;2023-05-03T18:37:08;16.10;85.40
20833;DHT22;56075;51.264;7.150;2023-05-03T18:39:39;16.30;86.70
20833;DHT22;56075;51.264;7.150;2023-05-03T18:42:10;16.10;86.40
20833;DHT22;56075;51.264;7.150;2023-05-03T18:44:42;15.90;87.00
20833;DHT22;56075;51.264;7.150;2023-05-03T18:47:13;16.70;87.50
20833;DHT22;56075;51.264;7.150;2023-05-03T18:49:48;16.40;87.90
20833;DHT22;56075;51.264;7.150;2023-05-03T18:52:22;16.80;88.90
20833;DHT22;56075;51.264;7.150;2023-05-03T18:54:53;15.60;88.00
20833;DHT22;56075;51.264;7.150;2023-05-03T18:57:24;16.70;89.00
20833;DHT22;56075;51.264;7.150;2023-05-03T18:59:55;16.30;89.20
20833;DHT22;56075;51.264;7.150;2023-05-03T19:02:27;15.10;89.00
20833;DHT22;56075;51.264;7.150;2023-05-03T19:05:01;15.30;89.40
20833;DHT22;56075;51.264;7.150;2023-05-03T19:07:32;15.00;89.70
20833;DHT22;56075;51.264;7.150;2023-05-03T19:10:03;14.90;89.90
20833;DHT22;56075;51.264;7.150;2023-05-03T19:12:35;14.80;89.80
20833;DHT22;56075;51.264;7.150;2023-05-03T19:15:06;15.60;90.20
20833;DHT22;56075;51.264;7.150;2023-05-03T19:17:37;14.70;90.10
20833;DHT22;56075;51.264;7.150;2023-05-03T19:20:11;14.60;90.40
20833;DHT22;56075;51.264;7.150;2023-05-03T19:22:43;14.50;90.40
20833;DHT22;56075;51.264;7.150;2023-05-03T19:25:14;14.40;90.50
20833;DHT22;56075;51.264;7.150;2023-05-03T19:27:46;14.40;90.60
20833;DHT22;56075;51.264;7.150;2023-05-03T19:30:17;14.30;90.70
20833;DHT22;56075;51.264;7.150;2023-05-03T19:32:49;14.30;91.10
20833;DHT22;56075;51.264;7.150;2023-05-03T19:35:20;14.20;90.90
20833;DHT22;56075;51.264;7.150;2023-05-03T19:37:51;14.20;91.10
20833;DHT22;56075;51.264;7.150;2023-05-03T19:40:22;14.10;91.20
20833;DHT22;56075;51.264;7.150;2023-05-03T19:42:54;14.10;91.40
20833;DHT22;56075;51.264;7.150;2023-05-03T19:45:25;13.90;91.30
20833;DHT22;56075;51.264;7.150;2023-05-03T19:47:56;14.00;91.50
20833;DHT22;56075;51.264;7.150;2023-05-03T19:50:28;14.60;91.70
20833;DHT22;56075;51.264;7.150;2023-05-03T19:52:59;13.80;91.90
20833;DHT22;56075;51.264;7.150;2023-05-03T19:55:30;15.40;92.20
20833;DHT22;56075;51.264;7.150;2023-05-03T19:58:01;13.70;91.90
20833;DHT22;56075;51.264;7.150;2023-05-03T20:00:32;13.80;92.00
20833;DHT22;56075;51.264;7.150;2023-05-03T20:03:03;14.90;92.50
20833;DHT22;56075;51.264;7.150;2023-05-03T20:05:35;13.70;92.00
20833;DHT22;56075;51.264;7.150;2023-05-03T20:08:06;13.50;92.30
20833;DHT22;56075;51.264;7.150;2023-05-03T20:10:37;13.40;92.40
20833;DHT22;56075;51.264;7.150;2023-05-03T20:13:08;13.50;92.50
20833;DHT22;56075;51.264;7.150;2023-05-03T20:15:40;14.30;92.90
20833;DHT22;56075;51.264;7.150;2023-05-03T20:18:11;13.30;92.80
20833;DHT22;56075;51.264;7.150;2023-05-03T20:20:42;13.70;92.80
20833;DHT22;56075;51.264;7.150;2023-05-03T20:23:13;13.30;92.80
20833;DHT22;56075;51.264;7.150;2023-05-03T20:25:46;13.70;93.20
20833;DHT22;56075;51.264;7.150;2023-05-03T20:28:17;14.40;93.80
20833;DHT22;56075;51.264;7.150;2023-05-03T20:30:48;13.30;93.10
20833;DHT22;56075;51.264;7.150;2023-05-03T20:33:19;14.50;93.50
20833;DHT22;56075;51.264;7.150;2023-05-03T20:35:50;12.90;93.30
20833;DHT22;56075;51.264;7.150;2023-05-03T20:38:22;13.10;93.50
20833;DHT22;56075;51.264;7.150;2023-05-03T20:40:53;12.80;93.40
20833;DHT22;56075;51.264;7.150;2023-05-03T20:43:24;12.90;93.50
20833;DHT22;56075;51.264;7.150;2023-05-03T20:45:56;14.40;94.10
20833;DHT22;56075;51.264;7.150;2023-05-03T20:48:27;14.00;94.30
20833;DHT22;56075;51.264;7.150;2023-05-03T20:50:58;12.80;93.90
20833;DHT22;56075;51.264;7.150;2023-05-03T20:53:30;12.90;94.10
20833;DHT22;56075;51.264;7.150;2023-05-03T20:56:02;12.70;94.00
20833;DHT22;56075;51.264;7.150;2023-05-03T20:58:36;12.70;94.30
20833;DHT22;56075;51.264;7.150;2023-05-03T21:01:07;12.60;95.30
20833;DHT22;56075;51.264;7.150;2023-05-03T21:03:38;12.50;94.40
20833;DHT22;56075;51.264;7.150;2023-05-03T21:06:09;12.50;94.40
20833;DHT22;56075;51.264;7.150;2023-05-03T21:08:40;12.50;94.50
20833;DHT22;56075;51.264;7.150;2023-05-03T21:11:12;12.50;94.40
20833;DHT22;56075;51.264;7.150;2023-05-03T21:13:43;12.50;94.90
20833;DHT22;56075;51.264;7.150;2023-05-03T21:16:14;12.20;94.80
20833;DHT22;56075;51.264;7.150;2023-05-03T21:18:45;12.20;94.90
20833;DHT22;56075;51.264;7.150;2023-05-03T21:21:16;12.30;95.10
20833;DHT22;56075;51.264;7.150;2023-05-03T21:23:48;12.30;95.10
20833;DHT22;56075;51.264;7.150;2023-05-03T21:26:19;12.20;95.30
20833;DHT22;56075;51.264;7.150;2023-05-03T21:28:50;12.10;96.30